sensor_id;sensor_type;location;lat;lon;timestamp;temperature;humidity
44477;DHT22;30180;44.788;10.366;2022-07-29T00:01:18;27.60;58.50
44477;DHT22;30180;44.788;10.366;2022-07-29T00:03:47;27.60;58.60
44477;DHT22;30180;44.788;10.366;2022-07-29T00:06:16;27.60;58.60
44477;DHT22;30180;44.788;10.366;2022-07-29T00:08:44;27.50;58.60
44477;DHT22;30180;44.788;10.366;2022-07-29T00:11:14;27.50;58.60
44477;DHT22;30180;44.788;10.366;2022-07-29T00:13:42;27.50;58.60
44477;DHT22;30180;44.788;10.366;2022-07-29T00:16:16;27.50;58.60
44477;DHT22;30180;44.788;10.366;2022-07-29T00:18:45;27.50;58.60
44477;DHT22;30180;44.788;10.366;2022-07-29T00:21:13;27.60;58.70
44477;DHT22;30180;44.788;10.366;2022-07-29T00:23:41;27.50;58.70
44477;DHT22;30180;44.788;10.366;2022-07-29T00:26:09;27.50;58.70
44477;DHT22;30180;44.788;10.366;2022-07-29T00:28:39;27.50;58.70
44477;DHT22;30180;44.788;10.366;2022-07-29T00:31:07;27.50;58.70
44477;DHT22;30180;44.788;10.366;2022-07-29T00:33:35;27.50;58.70
44477;DHT22;30180;44.788;10.366;2022-07-29T00:36:04;27.50;58.80
44477;DHT22;30180;44.788;10.366;2022-07-29T00:38:31;27.50;58.80
44477;DHT22;30180;44.788;10.366;2022-07-29T00:41:00;27.50;58.80
44477;DHT22;30180;44.788;10.366;2022-07-29T00:43:28;27.50;58.80
44477;DHT22;30180;44.788;10.366;2022-07-29T00:45:57;27.50;58.80
44477;DHT22;30180;44.788;10.366;2022-07-29T00:48:25;27.50;58.90
44477;DHT22;30180;44.788;10.366;2022-07-29T00:50:54;27.50;58.80
44477;DHT22;30180;44.788;10.366;2022-07-29T00:53:22;27.50;58.90
44477;DHT22;30180;44.788;10.366;2022-07-29T00:55:53;27.40;58.80
44477;DHT22;30180;44.788;10.366;2022-07-29T00:58:21;27.50;58.80
44477;DHT22;30180;44.788;10.366;2022-07-29T01:00:50;27.50;58.90
44477;DHT22;30180;44.788;10.366;2022-07-29T01:03:20;27.50;59.50
44477;DHT22;30180;44.788;10.366;2022-07-29T01:05:48;27.40;58.80
44477;DHT22;30180;44.788;10.366;2022-07-29T01:08:18;27.40;58.80
44477;DHT22;30180;44.788;10.366;2022-07-29T01:10:47;27.40;58.90
44477;DHT22;30180;44.788;10.366;2022-07-29T01:13:17;27.40;58.80
44477;DHT22;30180;44.788;10.366;2022-07-29T01:15:49;27.40;58.80
44477;DHT22;30180;44.788;10.366;2022-07-29T01:18:24;27.40;58.90
44477;DHT22;30180;44.788;10.366;2022-07-29T01:21:16;27.40;58.90
44477;DHT22;30180;44.788;10.366;2022-07-29T01:24:04;27.40;58.90
44477;DHT22;30180;44.788;10.366;2022-07-29T01:26:42;27.40;58.90
44477;DHT22;30180;44.788;10.366;2022-07-29T01:29:24;27.40;58.90
44477;DHT22;30180;44.788;10.366;2022-07-29T01:32:05;27.50;59.00
44477;DHT22;30180;44.788;10.366;2022-07-29T01:34:58;27.40;58.90
44477;DHT22;30180;44.788;10.366;2022-07-29T01:37:28;27.40;58.90
44477;DHT22;30180;44.788;10.366;2022-07-29T01:39:58;27.40;58.90
44477;DHT22;30180;44.788;10.366;2022-07-29T01:42:31;27.40;58.90
44477;DHT22;30180;44.788;10.366;2022-07-29T01:45:08;27.40;58.90
44477;DHT22;30180;44.788;10.366;2022-07-29T01:47:44;27.40;58.90
44477;DHT22;30180;44.788;10.366;2022-07-29T01:50:16;27.40;58.90
44477;DHT22;30180;44.788;10.366;2022-07-29T01:52:49;27.40;58.90
44477;DHT22;30180;44.788;10.366;2022-07-29T01:55:23;27.40;58.90
44477;DHT22;30180;44.788;10.366;2022-07-29T01:57:55;27.40;58.90
44477;DHT22;30180;44.788;10.366;2022-07-29T02:00:26;27.40;59.00
44477;DHT22;30180;44.788;10.366;2022-07-29T02:02:56;27.40;59.00
44477;DHT22;30180;44.788;10.366;2022-07-29T02:05:25;27.40;59.00
44477;DHT22;30180;44.788;10.366;2022-07-29T02:07:55;27.40;59.00
44477;DHT22;30180;44.788;10.366;2022-07-29T02:10:26;27.40;59.00
44477;DHT22;30180;44.788;10.366;2022-07-29T02:12:57;27.40;59.00
44477;DHT22;30180;44.788;10.366;2022-07-29T02:15:28;27.40;59.00
44477;DHT22;30180;44.788;10.366;2022-07-29T02:18:01;27.40;59.00
44477;DHT22;30180;44.788;10.366;2022-07-29T02:20:30;27.40;59.00
44477;DHT22;30180;44.788;10.366;2022-07-29T02:22:58;27.40;59.00
44477;DHT22;30180;44.788;10.366;2022-07-29T02:25:27;27.40;59.00
44477;DHT22;30180;44.788;10.366;2022-07-29T02:28:05;27.40;59.00
44477;DHT22;30180;44.788;10.366;2022-07-29T02:30:36;27.40;59.00
44477;DHT22;30180;44.788;10.366;2022-07-29T02:33:07;27.40;59.60
44477;DHT22;30180;44.788;10.366;2022-07-29T02:35:37;27.40;59.00
44477;DHT22;30180;44.788;10.366;2022-07-29T02:38:07;27.40;59.00
44477;DHT22;30180;44.788;10.366;2022-07-29T02:40:53;27.40;59.00
44477;DHT22;30180;44.788;10.366;2022-07-29T02:43:24;27.40;59.00
44477;DHT22;30180;44.788;10.366;2022-07-29T02:45:55;27.40;59.00
44477;DHT22;30180;44.788;10.366;2022-07-29T02:48:32;27.40;59.00
44477;DHT22;30180;44.788;10.366;2022-07-29T02:51:08;27.40;59.00
44477;DHT22;30180;44.788;10.366;2022-07-29T02:54:01;27.40;58.90
44477;DHT22;30180;44.788;10.366;2022-07-29T02:56:33;27.40;59.00
44477;DHT22;30180;44.788;10.366;2022-07-29T02:59:08;27.40;59.00
44477;DHT22;30180;44.788;10.366;2022-07-29T03:01:42;27.40;59.00
44477;DHT22;30180;44.788;10.366;2022-07-29T03:04:12;27.40;59.00
44477;DHT22;30180;44.788;10.366;2022-07-29T03:06:43;27.40;58.90
44477;DHT22;30180;44.788;10.366;2022-07-29T03:09:13;27.40;59.00
44477;DHT22;30180;44.788;10.366;2022-07-29T03:11:42;27.40;59.00
44477;DHT22;30180;44.788;10.366;2022-07-29T03:14:17;27.40;59.00
44477;DHT22;30180;44.788;10.366;2022-07-29T03:16:49;27.30;58.90
44477;DHT22;30180;44.788;10.366;2022-07-29T03:19:18;27.30;58.90
44477;DHT22;30180;44.788;10.366;2022-07-29T03:21:48;27.30;58.90
44477;DHT22;30180;44.788;10.366;2022-07-29T03:24:26;27.30;58.90
44477;DHT22;30180;44.788;10.366;2022-07-29T03:26:55;27.40;59.00
44477;DHT22;30180;44.788;10.366;2022-07-29T03:29:25;27.40;59.00
44477;DHT22;30180;44.788;10.366;2022-07-29T03:32:02;27.40;59.00
44477;DHT22;30180;44.788;10.366;2022-07-29T03:34:35;27.30;58.90
44477;DHT22;30180;44.788;10.366;2022-07-29T03:37:05;27.30;58.90
44477;DHT22;30180;44.788;10.366;2022-07-29T03:39:38;27.30;58.90
44477;DHT22;30180;44.788;10.366;2022-07-29T03:42:10;27.40;59.00
44477;DHT22;30180;44.788;10.366;2022-07-29T03:44:40;27.30;58.90
44477;DHT22;30180;44.788;10.366;2022-07-29T03:47:11;27.30;58.90
44477;DHT22;30180;44.788;10.366;2022-07-29T03:49:41;27.30;58.90
44477;DHT22;30180;44.788;10.366;2022-07-29T03:52:10;27.40;59.00
44477;DHT22;30180;44.788;10.366;2022-07-29T03:54:38;27.30;58.90
44477;DHT22;30180;44.788;10.366;2022-07-29T03:57:07;27.30;58.90
44477;DHT22;30180;44.788;10.366;2022-07-29T03:59:38;27.30;58.90
44477;DHT22;30180;44.788;10.366;2022-07-29T04:02:11;27.30;58.90
44477;DHT22;30180;44.788;10.366;2022-07-29T04:04:42;27.30;58.90
44477;DHT22;30180;44.788;10.366;2022-07-29T04:07:12;27.30;58.80
44477;DHT22;30180;44.788;10.366;2022-07-29T04:09:40;27.30;58.80
44477;DHT22;30180;44.788;10.366;2022-07-29T04:12:09;27.30;58.80
44477;DHT22;30180;44.788;10.366;2022-07-29T04:14:38;27.30;58.70
44477;DHT22;30180;44.788;10.366;2022-07-29T04:17:06;27.20;58.60
44477;DHT22;30180;44.788;10.366;2022-07-29T04:19:35;27.20;58.70
44477;DHT22;30180;44.788;10.366;2022-07-29T04:22:04;27.20;58.70
44477;DHT22;30180;44.788;10.366;2022-07-29T04:24:32;27.10;59.30
44477;DHT22;30180;44.788;10.366;2022-07-29T04:27:00;27.10;58.70
44477;DHT22;30180;44.788;10.366;2022-07-29T04:29:28;27.10;58.80
44477;DHT22;30180;44.788;10.366;2022-07-29T04:31:56;27.10;58.80
44477;DHT22;30180;44.788;10.366;2022-07-29T04:34:24;27.10;58.80
44477;DHT22;30180;44.788;10.366;2022-07-29T04:36:55;27.10;58.90
44477;DHT22;30180;44.788;10.366;2022-07-29T04:39:23;27.10;58.80
44477;DHT22;30180;44.788;10.366;2022-07-29T04:41:56;27.10;58.80
44477;DHT22;30180;44.788;10.366;2022-07-29T04:44:24;27.10;58.90
44477;DHT22;30180;44.788;10.366;2022-07-29T04:46:55;27.10;58.90
44477;DHT22;30180;44.788;10.366;2022-07-29T04:49:24;27.10;58.90
44477;DHT22;30180;44.788;10.366;2022-07-29T04:51:52;27.00;58.90
44477;DHT22;30180;44.788;10.366;2022-07-29T04:54:22;27.00;58.90
44477;DHT22;30180;44.788;10.366;2022-07-29T04:56:52;27.00;58.90
44477;DHT22;30180;44.788;10.366;2022-07-29T04:59:20;27.10;59.00
44477;DHT22;30180;44.788;10.366;2022-07-29T05:01:48;27.10;59.00
44477;DHT22;30180;44.788;10.366;2022-07-29T05:04:16;27.00;58.90
44477;DHT22;30180;44.788;10.366;2022-07-29T05:06:46;27.00;58.90
44477;DHT22;30180;44.788;10.366;2022-07-29T05:09:14;27.00;58.90
44477;DHT22;30180;44.788;10.366;2022-07-29T05:11:44;27.00;58.90
44477;DHT22;30180;44.788;10.366;2022-07-29T05:14:12;27.00;58.90
44477;DHT22;30180;44.788;10.366;2022-07-29T05:16:41;27.00;59.60
44477;DHT22;30180;44.788;10.366;2022-07-29T05:19:10;27.00;59.00
44477;DHT22;30180;44.788;10.366;2022-07-29T05:21:40;27.00;59.00
44477;DHT22;30180;44.788;10.366;2022-07-29T05:24:08;27.00;59.10
44477;DHT22;30180;44.788;10.366;2022-07-29T05:26:37;27.00;59.10
44477;DHT22;30180;44.788;10.366;2022-07-29T05:29:06;27.00;59.20
44477;DHT22;30180;44.788;10.366;2022-07-29T05:31:55;27.00;59.20
44477;DHT22;30180;44.788;10.366;2022-07-29T05:34:23;27.00;59.20
44477;DHT22;30180;44.788;10.366;2022-07-29T05:36:51;27.00;59.20
44477;DHT22;30180;44.788;10.366;2022-07-29T05:39:20;27.00;59.30
44477;DHT22;30180;44.788;10.366;2022-07-29T05:42:08;27.00;59.20
44477;DHT22;30180;44.788;10.366;2022-07-29T05:44:39;27.00;59.20
44477;DHT22;30180;44.788;10.366;2022-07-29T05:47:07;27.00;59.20
44477;DHT22;30180;44.788;10.366;2022-07-29T05:49:35;27.00;59.30
44477;DHT22;30180;44.788;10.366;2022-07-29T05:52:04;27.00;59.30
44477;DHT22;30180;44.788;10.366;2022-07-29T05:54:32;26.90;59.20
44477;DHT22;30180;44.788;10.366;2022-07-29T05:57:01;26.90;59.30
44477;DHT22;30180;44.788;10.366;2022-07-29T05:59:29;27.00;59.30
44477;DHT22;30180;44.788;10.366;2022-07-29T06:01:58;26.90;59.20
44477;DHT22;30180;44.788;10.366;2022-07-29T06:04:27;26.90;59.20
44477;DHT22;30180;44.788;10.366;2022-07-29T06:06:55;26.90;59.30
44477;DHT22;30180;44.788;10.366;2022-07-29T06:09:23;26.90;59.30
44477;DHT22;30180;44.788;10.366;2022-07-29T06:11:52;26.90;59.30
44477;DHT22;30180;44.788;10.366;2022-07-29T06:14:21;26.90;59.30
44477;DHT22;30180;44.788;10.366;2022-07-29T06:16:49;26.80;59.30
44477;DHT22;30180;44.788;10.366;2022-07-29T06:19:18;26.80;59.30
44477;DHT22;30180;44.788;10.366;2022-07-29T06:21:47;26.80;59.30
44477;DHT22;30180;44.788;10.366;2022-07-29T06:24:15;26.80;59.30
44477;DHT22;30180;44.788;10.366;2022-07-29T06:26:45;26.80;59.20
44477;DHT22;30180;44.788;10.366;2022-07-29T06:29:13;26.80;59.30
44477;DHT22;30180;44.788;10.366;2022-07-29T06:31:41;26.80;59.30
44477;DHT22;30180;44.788;10.366;2022-07-29T06:34:09;26.80;59.30
44477;DHT22;30180;44.788;10.366;2022-07-29T06:36:39;26.80;59.40
44477;DHT22;30180;44.788;10.366;2022-07-29T06:39:08;26.80;59.40
44477;DHT22;30180;44.788;10.366;2022-07-29T06:41:38;26.90;59.40
44477;DHT22;30180;44.788;10.366;2022-07-29T06:44:06;26.90;59.50
44477;DHT22;30180;44.788;10.366;2022-07-29T06:46:34;26.90;59.50
44477;DHT22;30180;44.788;10.366;2022-07-29T06:49:03;26.90;59.50
44477;DHT22;30180;44.788;10.366;2022-07-29T06:51:32;27.00;59.60
44477;DHT22;30180;44.788;10.366;2022-07-29T06:54:02;27.00;59.60
44477;DHT22;30180;44.788;10.366;2022-07-29T06:56:34;27.00;59.60
44477;DHT22;30180;44.788;10.366;2022-07-29T06:59:07;27.00;59.90
44477;DHT22;30180;44.788;10.366;2022-07-29T07:01:36;27.10;59.70
44477;DHT22;30180;44.788;10.366;2022-07-29T07:04:06;27.10;59.70
44477;DHT22;30180;44.788;10.366;2022-07-29T07:06:35;27.10;59.80
44477;DHT22;30180;44.788;10.366;2022-07-29T07:09:05;27.20;59.80
44477;DHT22;30180;44.788;10.366;2022-07-29T07:11:34;27.20;60.50
44477;DHT22;30180;44.788;10.366;2022-07-29T07:14:02;27.20;59.80
44477;DHT22;30180;44.788;10.366;2022-07-29T07:16:30;27.20;59.80
44477;DHT22;30180;44.788;10.366;2022-07-29T07:18:59;27.30;59.90
44477;DHT22;30180;44.788;10.366;2022-07-29T07:21:28;27.20;59.80
44477;DHT22;30180;44.788;10.366;2022-07-29T07:23:57;27.30;59.90
44477;DHT22;30180;44.788;10.366;2022-07-29T07:26:27;27.30;59.90
44477;DHT22;30180;44.788;10.366;2022-07-29T07:28:55;27.30;59.90
44477;DHT22;30180;44.788;10.366;2022-07-29T07:31:24;27.30;60.00
44477;DHT22;30180;44.788;10.366;2022-07-29T07:33:52;27.30;59.90
44477;DHT22;30180;44.788;10.366;2022-07-29T07:36:21;27.30;59.90
44477;DHT22;30180;44.788;10.366;2022-07-29T07:38:49;27.40;60.00
44477;DHT22;30180;44.788;10.366;2022-07-29T07:41:18;27.40;60.00
44477;DHT22;30180;44.788;10.366;2022-07-29T07:43:47;27.40;60.00
44477;DHT22;30180;44.788;10.366;2022-07-29T07:46:15;27.40;60.00
44477;DHT22;30180;44.788;10.366;2022-07-29T07:48:44;27.40;60.00
44477;DHT22;30180;44.788;10.366;2022-07-29T07:51:12;27.40;60.00
44477;DHT22;30180;44.788;10.366;2022-07-29T07:53:40;27.40;60.00
44477;DHT22;30180;44.788;10.366;2022-07-29T07:56:09;27.40;60.00
44477;DHT22;30180;44.788;10.366;2022-07-29T07:58:38;27.40;60.00
44477;DHT22;30180;44.788;10.366;2022-07-29T08:01:08;27.40;60.00
44477;DHT22;30180;44.788;10.366;2022-07-29T08:03:36;27.40;60.00
44477;DHT22;30180;44.788;10.366;2022-07-29T08:06:05;27.40;60.00
44477;DHT22;30180;44.788;10.366;2022-07-29T08:08:34;27.40;60.70
44477;DHT22;30180;44.788;10.366;2022-07-29T08:11:02;27.40;60.00
44477;DHT22;30180;44.788;10.366;2022-07-29T08:13:35;27.40;60.00
44477;DHT22;30180;44.788;10.366;2022-07-29T08:16:05;27.50;60.10
44477;DHT22;30180;44.788;10.366;2022-07-29T08:18:42;27.50;60.10
44477;DHT22;30180;44.788;10.366;2022-07-29T08:21:10;27.50;60.10
44477;DHT22;30180;44.788;10.366;2022-07-29T08:23:41;27.50;60.00
44477;DHT22;30180;44.788;10.366;2022-07-29T08:26:25;27.50;60.00
44477;DHT22;30180;44.788;10.366;2022-07-29T08:28:53;27.50;60.00
44477;DHT22;30180;44.788;10.366;2022-07-29T08:31:22;27.50;60.00
44477;DHT22;30180;44.788;10.366;2022-07-29T08:33:51;27.50;60.00
44477;DHT22;30180;44.788;10.366;2022-07-29T08:36:20;27.50;60.00
44477;DHT22;30180;44.788;10.366;2022-07-29T08:38:48;27.50;60.00
44477;DHT22;30180;44.788;10.366;2022-07-29T08:41:18;27.50;60.00
44477;DHT22;30180;44.788;10.366;2022-07-29T08:43:47;27.50;60.00
44477;DHT22;30180;44.788;10.366;2022-07-29T08:46:16;27.50;60.10
44477;DHT22;30180;44.788;10.366;2022-07-29T08:48:45;27.50;60.10
44477;DHT22;30180;44.788;10.366;2022-07-29T08:51:17;27.60;60.10
44477;DHT22;30180;44.788;10.366;2022-07-29T08:53:48;27.60;60.10
44477;DHT22;30180;44.788;10.366;2022-07-29T08:56:17;27.60;60.10
44477;DHT22;30180;44.788;10.366;2022-07-29T08:58:46;27.60;60.10
44477;DHT22;30180;44.788;10.366;2022-07-29T09:01:23;27.60;60.10
44477;DHT22;30180;44.788;10.366;2022-07-29T09:04:04;27.60;60.00
44477;DHT22;30180;44.788;10.366;2022-07-29T09:06:37;27.60;60.00
44477;DHT22;30180;44.788;10.366;2022-07-29T09:09:07;27.60;60.00
44477;DHT22;30180;44.788;10.366;2022-07-29T09:11:36;27.60;60.00
44477;DHT22;30180;44.788;10.366;2022-07-29T09:14:04;27.60;60.00
44477;DHT22;30180;44.788;10.366;2022-07-29T09:16:51;27.60;60.00
44477;DHT22;30180;44.788;10.366;2022-07-29T09:19:28;27.60;60.00
44477;DHT22;30180;44.788;10.366;2022-07-29T09:22:00;27.60;60.00
44477;DHT22;30180;44.788;10.366;2022-07-29T09:24:42;27.60;60.00
44477;DHT22;30180;44.788;10.366;2022-07-29T09:27:19;27.60;60.00
44477;DHT22;30180;44.788;10.366;2022-07-29T09:29:56;27.60;60.00
44477;DHT22;30180;44.788;10.366;2022-07-29T09:32:25;27.60;60.00
44477;DHT22;30180;44.788;10.366;2022-07-29T09:35:20;27.70;60.10
44477;DHT22;30180;44.788;10.366;2022-07-29T09:37:50;27.70;60.10
44477;DHT22;30180;44.788;10.366;2022-07-29T09:40:19;27.70;60.10
44477;DHT22;30180;44.788;10.366;2022-07-29T09:42:48;27.70;60.10
44477;DHT22;30180;44.788;10.366;2022-07-29T09:45:27;27.70;60.00
44477;DHT22;30180;44.788;10.366;2022-07-29T09:47:57;27.70;60.10
44477;DHT22;30180;44.788;10.366;2022-07-29T09:50:37;27.70;60.00
44477;DHT22;30180;44.788;10.366;2022-07-29T09:53:08;27.70;60.70
44477;DHT22;30180;44.788;10.366;2022-07-29T09:55:46;27.70;60.00
44477;DHT22;30180;44.788;10.366;2022-07-29T09:58:15;27.70;60.00
44477;DHT22;30180;44.788;10.366;2022-07-29T10:00:45;27.70;60.00
44477;DHT22;30180;44.788;10.366;2022-07-29T10:03:14;27.70;60.00
44477;DHT22;30180;44.788;10.366;2022-07-29T10:05:43;27.70;60.00
44477;DHT22;30180;44.788;10.366;2022-07-29T10:08:13;27.70;60.00
44477;DHT22;30180;44.788;10.366;2022-07-29T10:11:09;27.70;60.00
44477;DHT22;30180;44.788;10.366;2022-07-29T10:13:38;27.70;60.00
44477;DHT22;30180;44.788;10.366;2022-07-29T10:16:07;27.80;60.10
44477;DHT22;30180;44.788;10.366;2022-07-29T10:18:38;27.70;60.00
44477;DHT22;30180;44.788;10.366;2022-07-29T10:21:06;27.80;60.00
44477;DHT22;30180;44.788;10.366;2022-07-29T10:23:38;27.80;60.10
44477;DHT22;30180;44.788;10.366;2022-07-29T10:26:13;27.80;60.00
44477;DHT22;30180;44.788;10.366;2022-07-29T10:28:42;27.80;60.00
44477;DHT22;30180;44.788;10.366;2022-07-29T10:31:14;27.80;60.00
44477;DHT22;30180;44.788;10.366;2022-07-29T10:33:51;27.80;60.00
44477;DHT22;30180;44.788;10.366;2022-07-29T10:36:27;27.80;60.00
44477;DHT22;30180;44.788;10.366;2022-07-29T10:39:06;27.80;59.90
44477;DHT22;30180;44.788;10.366;2022-07-29T10:42:02;27.80;59.90
44477;DHT22;30180;44.788;10.366;2022-07-29T10:44:35;27.80;59.90
44477;DHT22;30180;44.788;10.366;2022-07-29T10:47:07;27.80;59.90
44477;DHT22;30180;44.788;10.366;2022-07-29T10:49:36;27.80;59.90
44477;DHT22;30180;44.788;10.366;2022-07-29T10:52:07;27.80;59.80
44477;DHT22;30180;44.788;10.366;2022-07-29T10:54:47;27.80;59.90
44477;DHT22;30180;44.788;10.366;2022-07-29T10:57:22;27.80;59.80
44477;DHT22;30180;44.788;10.366;2022-07-29T11:00:33;27.80;59.80
44477;DHT22;30180;44.788;10.366;2022-07-29T11:03:02;27.80;59.80
44477;DHT22;30180;44.788;10.366;2022-07-29T11:05:53;27.80;59.80
44477;DHT22;30180;44.788;10.366;2022-07-29T11:08:25;27.80;59.90
44477;DHT22;30180;44.788;10.366;2022-07-29T11:14:12;27.80;59.80
44477;DHT22;30180;44.788;10.366;2022-07-29T11:17:01;27.80;59.80
44477;DHT22;30180;44.788;10.366;2022-07-29T11:19:34;27.80;59.80
44477;DHT22;30180;44.788;10.366;2022-07-29T11:22:08;27.80;59.80
44477;DHT22;30180;44.788;10.366;2022-07-29T11:24:42;27.80;59.70
44477;DHT22;30180;44.788;10.366;2022-07-29T11:27:17;27.80;59.70
44477;DHT22;30180;44.788;10.366;2022-07-29T11:29:53;27.80;59.70
44477;DHT22;30180;44.788;10.366;2022-07-29T11:32:24;27.80;59.70
44477;DHT22;30180;44.788;10.366;2022-07-29T11:35:15;27.80;59.70
44477;DHT22;30180;44.788;10.366;2022-07-29T11:38:23;27.80;59.70
44477;DHT22;30180;44.788;10.366;2022-07-29T11:41:23;27.80;59.70
44477;DHT22;30180;44.788;10.366;2022-07-29T11:43:54;27.80;59.70
44477;DHT22;30180;44.788;10.366;2022-07-29T11:46:44;27.80;59.70
44477;DHT22;30180;44.788;10.366;2022-07-29T11:49:13;27.80;59.70
44477;DHT22;30180;44.788;10.366;2022-07-29T11:51:50;27.80;59.60
44477;DHT22;30180;44.788;10.366;2022-07-29T11:54:24;27.70;59.60
44477;DHT22;30180;44.788;10.366;2022-07-29T11:56:53;27.80;59.60
44477;DHT22;30180;44.788;10.366;2022-07-29T11:59:22;27.70;59.50
44477;DHT22;30180;44.788;10.366;2022-07-29T12:02:02;27.80;59.60
44477;DHT22;30180;44.788;10.366;2022-07-29T12:04:50;27.70;59.60
44477;DHT22;30180;44.788;10.366;2022-07-29T12:07:26;27.70;59.60
44477;DHT22;30180;44.788;10.366;2022-07-29T12:10:01;27.80;60.30
44477;DHT22;30180;44.788;10.366;2022-07-29T12:12:32;27.80;59.70
44477;DHT22;30180;44.788;10.366;2022-07-29T12:15:11;27.80;59.70
44477;DHT22;30180;44.788;10.366;2022-07-29T12:17:42;27.80;59.70
44477;DHT22;30180;44.788;10.366;2022-07-29T12:20:10;27.80;59.70
44477;DHT22;30180;44.788;10.366;2022-07-29T12:22:40;27.80;59.70
44477;DHT22;30180;44.788;10.366;2022-07-29T12:25:13;27.80;59.70
44477;DHT22;30180;44.788;10.366;2022-07-29T12:28:00;27.80;59.70
44477;DHT22;30180;44.788;10.366;2022-07-29T12:30:36;27.80;59.60
44477;DHT22;30180;44.788;10.366;2022-07-29T12:33:19;27.80;59.70
44477;DHT22;30180;44.788;10.366;2022-07-29T12:35:50;27.80;59.60
44477;DHT22;30180;44.788;10.366;2022-07-29T12:38:33;27.80;59.60
44477;DHT22;30180;44.788;10.366;2022-07-29T12:41:02;27.80;59.60
44477;DHT22;30180;44.788;10.366;2022-07-29T12:43:31;27.80;59.60
44477;DHT22;30180;44.788;10.366;2022-07-29T12:46:11;27.80;59.60
44477;DHT22;30180;44.788;10.366;2022-07-29T12:48:43;27.80;59.60
44477;DHT22;30180;44.788;10.366;2022-07-29T12:51:11;27.80;59.60
44477;DHT22;30180;44.788;10.366;2022-07-29T12:53:41;27.80;59.60
44477;DHT22;30180;44.788;10.366;2022-07-29T12:56:16;27.90;59.70
44477;DHT22;30180;44.788;10.366;2022-07-29T12:59:15;27.90;59.70
44477;DHT22;30180;44.788;10.366;2022-07-29T13:01:44;27.90;59.70
44477;DHT22;30180;44.788;10.366;2022-07-29T13:04:25;27.90;59.70
44477;DHT22;30180;44.788;10.366;2022-07-29T13:07:02;27.80;59.60
44477;DHT22;30180;44.788;10.366;2022-07-29T13:09:39;27.90;59.70
44477;DHT22;30180;44.788;10.366;2022-07-29T13:12:09;27.90;59.60
44477;DHT22;30180;44.788;10.366;2022-07-29T13:14:39;27.90;59.60
44477;DHT22;30180;44.788;10.366;2022-07-29T13:17:10;27.90;59.60
44477;DHT22;30180;44.788;10.366;2022-07-29T13:19:42;27.80;59.50
44477;DHT22;30180;44.788;10.366;2022-07-29T13:22:12;27.90;59.60
44477;DHT22;30180;44.788;10.366;2022-07-29T13:24:48;27.80;59.50
44477;DHT22;30180;44.788;10.366;2022-07-29T13:27:17;27.80;59.50
44477;DHT22;30180;44.788;10.366;2022-07-29T13:29:46;27.80;59.50
44477;DHT22;30180;44.788;10.366;2022-07-29T13:32:15;27.90;59.60
44477;DHT22;30180;44.788;10.366;2022-07-29T13:34:45;27.90;59.60
44477;DHT22;30180;44.788;10.366;2022-07-29T13:37:13;27.90;59.60
44477;DHT22;30180;44.788;10.366;2022-07-29T13:39:41;27.90;59.60
44477;DHT22;30180;44.788;10.366;2022-07-29T13:42:19;27.90;59.60
44477;DHT22;30180;44.788;10.366;2022-07-29T13:44:47;27.90;59.60
44477;DHT22;30180;44.788;10.366;2022-07-29T13:47:17;27.90;59.60
44477;DHT22;30180;44.788;10.366;2022-07-29T13:49:47;27.90;59.60
44477;DHT22;30180;44.788;10.366;2022-07-29T13:52:15;27.90;59.60
44477;DHT22;30180;44.788;10.366;2022-07-29T13:54:45;27.90;59.60
44477;DHT22;30180;44.788;10.366;2022-07-29T13:57:14;27.90;59.70
44477;DHT22;30180;44.788;10.366;2022-07-29T13:59:42;27.90;59.60
44477;DHT22;30180;44.788;10.366;2022-07-29T14:02:17;27.90;59.70
44477;DHT22;30180;44.788;10.366;2022-07-29T14:04:47;27.90;59.60
44477;DHT22;30180;44.788;10.366;2022-07-29T14:07:16;27.90;59.60
44477;DHT22;30180;44.788;10.366;2022-07-29T14:09:44;28.00;59.70
44477;DHT22;30180;44.788;10.366;2022-07-29T14:12:12;27.90;59.70
44477;DHT22;30180;44.788;10.366;2022-07-29T14:14:40;28.00;59.70
44477;DHT22;30180;44.788;10.366;2022-07-29T14:17:09;27.90;59.60
44477;DHT22;30180;44.788;10.366;2022-07-29T14:19:37;27.90;59.60
44477;DHT22;30180;44.788;10.366;2022-07-29T14:22:08;27.90;59.60
44477;DHT22;30180;44.788;10.366;2022-07-29T14:24:37;27.90;59.50
44477;DHT22;30180;44.788;10.366;2022-07-29T14:27:07;27.90;59.60
44477;DHT22;30180;44.788;10.366;2022-07-29T14:29:36;27.90;59.60
44477;DHT22;30180;44.788;10.366;2022-07-29T14:32:05;27.90;59.50
44477;DHT22;30180;44.788;10.366;2022-07-29T14:34:34;27.90;59.60
44477;DHT22;30180;44.788;10.366;2022-07-29T14:37:03;27.90;59.60
44477;DHT22;30180;44.788;10.366;2022-07-29T14:39:34;27.90;59.60
44477;DHT22;30180;44.788;10.366;2022-07-29T14:42:09;27.90;59.60
44477;DHT22;30180;44.788;10.366;2022-07-29T14:44:38;27.90;59.60
44477;DHT22;30180;44.788;10.366;2022-07-29T14:47:08;27.90;59.60
44477;DHT22;30180;44.788;10.366;2022-07-29T14:49:37;27.90;59.70
44477;DHT22;30180;44.788;10.366;2022-07-29T14:52:05;28.00;59.70
44477;DHT22;30180;44.788;10.366;2022-07-29T14:54:34;27.90;59.60
